createdAt,value
2023-01-04T00:00:47.102Z,97597.56
2023-01-04T00:03:44.296Z,97602.28
2023-01-04T00:06:41.205Z,97608.28
2023-01-04T00:09:37.969Z,97599.03
2023-01-04T00:12:36.085Z,97602.06
2023-01-04T00:15:32.894Z,97599.78
2023-01-04T00:18:31.229Z,97605.41
2023-01-04T00:21:29.712Z,97597.59
2023-01-04T00:24:26.456Z,97591.16
2023-01-04T00:27:23.193Z,97587.81
2023-01-04T00:30:19.967Z,97588.88
2023-01-04T00:33:16.710Z,97581.72
2023-01-04T00:36:14.339Z,97576.97
2023-01-04T00:39:15.234Z,97574.50
2023-01-04T00:42:11.993Z,97567.44
2023-01-04T00:45:09.055Z,97559.34
2023-01-04T00:48:05.918Z,97555.78
2023-01-04T00:51:02.665Z,97557.50
2023-01-04T00:54:03.680Z,97557.50
2023-01-04T00:57:01.263Z,97560.50
2023-01-04T00:59:58.111Z,97552.75
2023-01-04T01:02:54.965Z,97547.44
2023-01-04T01:05:51.859Z,97546.50
2023-01-04T01:08:48.618Z,97552.28
2023-01-04T01:11:45.428Z,97548.97
2023-01-04T01:14:42.197Z,97537.88
2023-01-04T01:17:39.278Z,97541.69
2023-01-04T01:20:40.229Z,97538.84
2023-01-04T01:23:37.093Z,97540.28
2023-01-04T01:26:34.402Z,97533.03
2023-01-04T01:29:31.148Z,97525.81
2023-01-04T01:32:27.899Z,97541.06
2023-01-04T01:35:24.665Z,97539.50
2023-01-04T01:38:21.423Z,97540.25
2023-01-04T01:41:26.855Z,97533.69
2023-01-04T01:44:41.804Z,97537.03
2023-01-04T01:47:46.095Z,97531.44
2023-01-04T01:51:04.043Z,97528.84
2023-01-04T01:54:11.767Z,97523.94
2023-01-04T01:57:10.981Z,97517.88
2023-01-04T02:00:12.063Z,97524.56
2023-01-04T02:03:20.881Z,97519.34
2023-01-04T02:06:26.732Z,97529.94
2023-01-04T02:09:23.594Z,97517.84
2023-01-04T02:12:20.343Z,97527.03
2023-01-04T02:15:17.280Z,97516.25
2023-01-04T02:18:20.739Z,97507.44
2023-01-04T02:21:55.168Z,97495.06
2023-01-04T02:25:07.994Z,97486.41
2023-01-04T02:28:16.487Z,97479.00
2023-01-04T02:31:48.404Z,97481.34
2023-01-04T02:34:59.457Z,97479.25
2023-01-04T02:38:22.060Z,97479.94
2023-01-04T02:41:47.276Z,97458.44
2023-01-04T02:44:59.382Z,97457.88
2023-01-04T02:48:14.717Z,97455.78
2023-01-04T02:51:46.962Z,97428.63
2023-01-04T02:54:44.428Z,97435.91
2023-01-04T02:57:54.927Z,97437.75
2023-01-04T03:01:18.920Z,97424.94
2023-01-04T03:05:07.563Z,97427.44
2023-01-04T03:08:25.989Z,97417.00
2023-01-04T03:11:42.496Z,97414.03
2023-01-04T03:14:45.600Z,97413.47
2023-01-04T03:18:22.808Z,97396.84
2023-01-04T03:21:21.010Z,97407.69
2023-01-04T03:24:36.176Z,97391.38
2023-01-04T03:27:51.467Z,97386.53
2023-01-04T03:31:17.625Z,97379.63
2023-01-04T03:34:33.309Z,97377.63
2023-01-04T03:37:40.583Z,97373.94
2023-01-04T03:40:56.794Z,97364.69
2023-01-04T03:44:28.744Z,97361.81
2023-01-04T03:47:50.735Z,97346.88
2023-01-04T03:51:06.024Z,97341.41
2023-01-04T03:54:14.393Z,97341.06
2023-01-04T03:57:12.402Z,97328.84
2023-01-04T04:00:14.675Z,97335.84
2023-01-04T04:03:11.449Z,97334.09
2023-01-04T04:06:27.546Z,97320.47
2023-01-04T04:09:24.294Z,97325.75
2023-01-04T04:12:21.167Z,97318.09
2023-01-04T04:15:18.073Z,97321.25
2023-01-04T04:18:14.806Z,97316.66
2023-01-04T04:21:11.555Z,97308.16
2023-01-04T04:24:15.978Z,97306.00
2023-01-04T04:27:12.787Z,97300.97
2023-01-04T04:30:09.821Z,97296.22
2023-01-04T04:33:06.556Z,97282.97
2023-01-04T04:36:04.190Z,97281.41
2023-01-04T04:39:00.997Z,97277.66
2023-01-04T04:41:57.714Z,97273.22
2023-01-04T04:44:54.469Z,97274.38
2023-01-04T04:47:51.209Z,97277.16
2023-01-04T04:50:47.952Z,97276.38
2023-01-04T04:53:44.701Z,97282.63
2023-01-04T04:56:41.451Z,97271.47
2023-01-04T04:59:38.250Z,97263.84
2023-01-04T05:02:35.052Z,97252.66
2023-01-04T05:05:31.829Z,97261.50
2023-01-04T05:08:28.741Z,97252.59
2023-01-04T05:11:43.889Z,97250.41
2023-01-04T05:14:40.653Z,97248.81
2023-01-04T05:17:37.383Z,97249.34
2023-01-04T05:20:35.300Z,97253.81
2023-01-04T05:23:32.178Z,97238.47
2023-01-04T05:26:28.998Z,97250.44
2023-01-04T05:29:44.357Z,97248.38
2023-01-04T05:32:41.318Z,97245.22
2023-01-04T05:35:38.307Z,97246.97
2023-01-04T05:38:35.127Z,97245.63
2023-01-04T05:41:50.770Z,97229.22
2023-01-04T05:44:47.529Z,97223.56
2023-01-04T05:47:44.288Z,97217.94
2023-01-04T05:50:41.643Z,97214.25
2023-01-04T05:53:38.555Z,97217.16
2023-01-04T05:56:35.316Z,97220.44
2023-01-04T05:59:35.730Z,97212.66
2023-01-04T06:02:37.819Z,97214.34
2023-01-04T06:05:34.734Z,97203.91
2023-01-04T06:08:31.475Z,97210.75
2023-01-04T06:11:28.211Z,97214.09
2023-01-04T06:14:24.945Z,97204.72
2023-01-04T06:17:21.703Z,97229.34
2023-01-04T06:20:18.452Z,97217.41
2023-01-04T06:23:15.225Z,97220.78
2023-01-04T06:26:11.975Z,97215.41
2023-01-04T06:29:08.777Z,97222.31
2023-01-04T06:32:05.542Z,97216.56
2023-01-04T06:35:02.371Z,97222.84
2023-01-04T06:37:59.135Z,97224.25
2023-01-04T06:40:55.899Z,97207.22
2023-01-04T06:43:52.813Z,97203.63
2023-01-04T06:46:49.545Z,97198.06
2023-01-04T06:49:46.273Z,97191.91
2023-01-04T06:52:43.201Z,97194.63
2023-01-04T06:55:39.975Z,97195.78
2023-01-04T06:58:37.023Z,97182.53
2023-01-04T07:01:33.843Z,97176.41
2023-01-04T07:04:30.683Z,97166.06
2023-01-04T07:07:27.511Z,97166.69
2023-01-04T07:10:24.259Z,97163.16
2023-01-04T07:13:20.995Z,97162.53
2023-01-04T07:16:17.814Z,97158.97
2023-01-04T07:19:14.574Z,97163.81
2023-01-04T07:22:11.346Z,97154.66
2023-01-04T07:25:08.479Z,97160.75
2023-01-04T07:28:05.309Z,97154.00
2023-01-04T07:31:07.840Z,97142.47
2023-01-04T07:34:04.632Z,97135.34
2023-01-04T07:37:01.373Z,97134.00
2023-01-04T07:39:58.136Z,97124.69
2023-01-04T07:42:58.950Z,97131.03
2023-01-04T07:45:55.817Z,97125.59
2023-01-04T07:48:52.633Z,97108.28
2023-01-04T07:51:49.939Z,97124.00
2023-01-04T07:54:46.690Z,97123.44
2023-01-04T07:57:43.406Z,97116.78
2023-01-04T08:00:40.173Z,97117.19
2023-01-04T08:03:36.924Z,97126.19
2023-01-04T08:06:34.245Z,97120.72
2023-01-04T08:09:30.996Z,97114.53
2023-01-04T08:12:27.884Z,97132.91
2023-01-04T08:15:24.615Z,97135.66
2023-01-04T08:18:21.851Z,97145.09
2023-01-04T08:21:18.559Z,97143.13
2023-01-04T08:24:17.652Z,97134.53
2023-01-04T08:27:14.390Z,97135.41
2023-01-04T08:30:11.336Z,97122.97
2023-01-04T08:33:15.035Z,97109.09
2023-01-04T08:36:25.953Z,97108.56
2023-01-04T08:39:23.617Z,97097.06
2023-01-04T08:42:28.578Z,97097.22
2023-01-04T08:45:27.707Z,97093.63
2023-01-04T08:48:24.940Z,97087.94
2023-01-04T08:51:21.800Z,97086.50
2023-01-04T08:54:19.212Z,97097.34
2023-01-04T08:57:19.288Z,97098.00
2023-01-04T09:00:18.131Z,97092.16
2023-01-04T09:03:15.127Z,97080.81
2023-01-04T09:06:14.048Z,97091.97
2023-01-04T09:09:10.791Z,97096.03
2023-01-04T09:12:07.513Z,97097.41
2023-01-04T09:15:05.010Z,97093.97
2023-01-04T09:21:22.381Z,97092.44
2023-01-04T09:24:19.367Z,97093.34
2023-01-04T09:27:16.095Z,97080.97
2023-01-04T09:30:13.115Z,97083.19
2023-01-04T09:33:09.834Z,97074.44
2023-01-04T09:36:08.544Z,97069.41
2023-01-04T09:39:05.474Z,97065.41
2023-01-04T09:42:04.046Z,97076.97
2023-01-04T09:45:25.969Z,97068.53
2023-01-04T09:48:27.291Z,97070.44
2023-01-04T09:51:27.002Z,97074.44
2023-01-04T09:57:29.780Z,97067.81
2023-01-04T10:00:30.504Z,97047.72
2023-01-04T10:03:32.032Z,97061.22
2023-01-04T10:06:29.076Z,97055.13
2023-01-04T10:09:25.820Z,97052.28
2023-01-04T10:12:59.937Z,97045.16
2023-01-04T10:16:30.263Z,97028.50
2023-01-04T10:21:12.902Z,97029.44
2023-01-04T10:23:13.083Z,97013.56
2023-01-04T10:26:15.028Z,97019.53
2023-01-04T10:29:28.456Z,97018.16
2023-01-04T10:32:42.625Z,97012.69
2023-01-04T10:35:43.474Z,97011.47
2023-01-04T10:38:40.901Z,97006.41
2023-01-04T10:41:43.076Z,97014.66
2023-01-04T10:45:16.634Z,97020.03
2023-01-04T10:48:23.747Z,97010.78
2023-01-04T10:51:28.636Z,96998.84
2023-01-04T10:54:38.266Z,96993.53
2023-01-04T10:57:40.915Z,96990.63
2023-01-04T11:00:44.113Z,96981.47
2023-01-04T11:03:53.124Z,96977.50
2023-01-04T11:07:24.053Z,96968.56
2023-01-04T11:10:35.656Z,96946.00
2023-01-04T11:13:32.781Z,96937.06
2023-01-04T11:16:30.016Z,96930.69
2023-01-04T11:19:28.728Z,96928.91
2023-01-04T11:22:40.377Z,96933.41
2023-01-04T11:25:50.463Z,96928.47
2023-01-04T11:28:53.652Z,96924.22
2023-01-04T11:31:57.615Z,96921.31
2023-01-04T11:34:57.529Z,96926.41
2023-01-04T11:38:09.411Z,96923.78
2023-01-04T11:41:08.433Z,96926.44
2023-01-04T11:44:06.863Z,96929.69
2023-01-04T11:47:23.397Z,96927.81
2023-01-04T11:50:48.506Z,96926.28
2023-01-04T11:53:45.375Z,96920.72
2023-01-04T11:57:12.093Z,96918.38
2023-01-04T12:00:14.103Z,96918.94
2023-01-04T12:03:15.081Z,96902.75
2023-01-04T12:06:35.238Z,96901.94
2023-01-04T12:09:32.363Z,96905.19
2023-01-04T12:12:32.427Z,96898.03
2023-01-04T12:15:38.735Z,96888.75
2023-01-04T12:18:41.878Z,96871.28
2023-01-04T12:21:38.640Z,96873.94
2023-01-04T12:24:35.379Z,96868.38
2023-01-04T12:27:32.114Z,96864.22
2023-01-04T12:30:45.707Z,96863.41
2023-01-04T12:33:42.476Z,96851.47
2023-01-04T12:36:39.112Z,96836.66
2023-01-04T12:39:44.261Z,96823.38
2023-01-04T12:43:00.962Z,96826.56
2023-01-04T12:46:47.562Z,96827.66
2023-01-04T12:50:02.851Z,96812.50
2023-01-04T12:53:38.815Z,96811.19
2023-01-04T12:56:21.610Z,96813.59
2023-01-04T12:59:32.336Z,96796.88
2023-01-04T13:02:36.290Z,96791.84
2023-01-04T13:05:56.111Z,96795.03
2023-01-04T13:08:53.966Z,96791.34
2023-01-04T13:12:23.040Z,96786.81
2023-01-04T13:15:24.847Z,96793.19
2023-01-04T13:18:36.959Z,96779.13
2023-01-04T13:21:38.229Z,96773.78
2023-01-04T13:24:35.342Z,96761.31
2023-01-04T13:27:33.423Z,96760.00
2023-01-04T13:30:31.742Z,96759.47
2023-01-04T13:33:29.130Z,96746.72
2023-01-04T13:36:25.938Z,96737.97
2023-01-04T13:39:22.815Z,96750.72
2023-01-04T13:42:34.722Z,96749.94
2023-01-04T13:45:47.149Z,96731.88
2023-01-04T13:48:47.769Z,96730.81
2023-01-04T13:51:44.540Z,96741.69
2023-01-04T13:54:41.306Z,96743.53
2023-01-04T13:57:38.050Z,96740.91
2023-01-04T14:00:45.415Z,96749.13
2023-01-04T14:03:46.298Z,96735.31
2023-01-04T14:06:48.573Z,96737.44
2023-01-04T14:09:47.751Z,96729.72
2023-01-04T14:12:46.439Z,96724.16
2023-01-04T14:15:43.257Z,96727.06
2023-01-04T14:18:40.081Z,96722.03
2023-01-04T14:21:37.094Z,96699.19
2023-01-04T14:27:52.181Z,96699.72
2023-01-04T14:30:52.373Z,96693.09
2023-01-04T14:33:51.969Z,96689.38
2023-01-04T14:36:48.817Z,96685.13
2023-01-04T14:39:45.588Z,96688.03
2023-01-04T14:42:42.322Z,96683.78
2023-01-04T14:45:39.096Z,96681.91
2023-01-04T14:48:35.879Z,96680.06
2023-01-04T14:51:38.593Z,96688.56
2023-01-04T14:54:38.193Z,96697.06
2023-01-04T14:57:38.127Z,96693.06
2023-01-04T15:00:34.866Z,96680.03
2023-01-04T15:03:31.699Z,96676.84
2023-01-04T15:06:28.591Z,96666.75
2023-01-04T15:09:26.507Z,96664.59
2023-01-04T15:12:23.272Z,96672.28
2023-01-04T15:15:20.792Z,96672.31
2023-01-04T15:18:18.194Z,96673.91
2023-01-04T15:21:15.010Z,96670.69
2023-01-04T15:24:11.878Z,96661.91
2023-01-04T15:27:08.624Z,96655.78
2023-01-04T15:30:05.966Z,96646.78
2023-01-04T15:33:02.716Z,96639.59
2023-01-04T15:36:01.176Z,96653.44
2023-01-04T15:38:58.218Z,96658.47
2023-01-04T15:42:13.656Z,96637.72
2023-01-04T15:45:10.518Z,96635.06
2023-01-04T15:48:09.507Z,96645.44
2023-01-04T15:51:09.974Z,96638.50
2023-01-04T15:54:06.831Z,96635.31
2023-01-04T15:57:03.642Z,96634.81
2023-01-04T16:00:00.421Z,96627.84
2023-01-04T16:02:57.300Z,96622.25
2023-01-04T16:05:54.085Z,96618.06
2023-01-04T16:08:52.830Z,96608.22
2023-01-04T16:12:08.155Z,96601.28
2023-01-04T16:15:05.518Z,96600.25
2023-01-04T16:18:02.252Z,96606.81
2023-01-04T16:20:59.746Z,96598.28
2023-01-04T16:24:06.252Z,96596.97
2023-01-04T16:27:06.150Z,96591.44
2023-01-04T16:30:03.930Z,96603.69
2023-01-04T16:33:01.485Z,96582.94
2023-01-04T16:36:06.081Z,96582.09
2023-01-04T16:39:02.963Z,96575.16
2023-01-04T16:41:59.726Z,96575.97
2023-01-04T16:44:56.477Z,96574.84
2023-01-04T16:47:54.755Z,96569.50
2023-01-04T16:50:51.498Z,96557.25
2023-01-04T16:53:48.406Z,96568.75
2023-01-04T16:56:46.888Z,96564.50
2023-01-04T16:59:43.630Z,96568.97
2023-01-04T17:02:40.519Z,96571.41
2023-01-04T17:05:40.367Z,96553.28
2023-01-04T17:08:37.291Z,96556.72
2023-01-04T17:12:27.173Z,96553.53
2023-01-04T17:15:23.851Z,96537.06
2023-01-04T17:18:12.613Z,96549.56
2023-01-04T17:21:33.141Z,96542.38
2023-01-04T17:24:29.252Z,96546.91
2023-01-04T17:27:25.990Z,96542.09
2023-01-04T17:30:22.800Z,96532.47
2023-01-04T17:33:19.535Z,96539.16
2023-01-04T17:36:18.014Z,96527.44
2023-01-04T17:39:14.850Z,96527.66
2023-01-04T17:42:12.027Z,96530.84
2023-01-04T17:45:10.563Z,96527.38
2023-01-04T17:48:07.294Z,96513.75
2023-01-04T17:51:05.245Z,96505.78
2023-01-04T17:54:04.614Z,96509.75
2023-01-04T17:57:01.364Z,96500.66
2023-01-04T17:59:58.314Z,96489.53
2023-01-04T18:02:55.136Z,96485.78
2023-01-04T18:06:07.151Z,96480.38
2023-01-04T18:09:15.422Z,96475.75
2023-01-04T18:12:15.211Z,96460.06
2023-01-04T18:15:12.113Z,96465.16
2023-01-04T18:18:08.853Z,96460.53
2023-01-04T18:21:28.019Z,96466.78
2023-01-04T18:24:37.978Z,96452.59
2023-01-04T18:27:35.601Z,96449.09
2023-01-04T18:30:32.333Z,96454.44
2023-01-04T18:33:29.073Z,96450.28
2023-01-04T18:36:31.999Z,96450.91
2023-01-04T18:39:29.412Z,96455.59
2023-01-04T18:42:26.152Z,96449.19
2023-01-04T18:45:22.902Z,96444.84
2023-01-04T18:48:19.680Z,96458.34
2023-01-04T18:51:17.195Z,96468.88
2023-01-04T18:54:20.520Z,96471.78
2023-01-04T18:57:20.303Z,96457.44
2023-01-04T19:00:17.111Z,96451.31
2023-01-04T19:03:18.408Z,96453.97
2023-01-04T19:06:22.770Z,96442.41
2023-01-04T19:09:19.523Z,96436.28
2023-01-04T19:12:16.729Z,96440.59
2023-01-04T19:15:13.527Z,96437.34
2023-01-04T19:18:11.482Z,96447.78
2023-01-04T19:21:08.469Z,96432.19
2023-01-04T19:24:05.394Z,96442.00
2023-01-04T19:27:05.309Z,96432.06
2023-01-04T19:30:02.579Z,96422.28
2023-01-04T19:32:59.622Z,96422.88
2023-01-04T19:35:56.371Z,96438.44
2023-01-04T19:38:56.187Z,96440.19
2023-01-04T19:41:52.922Z,96453.25
2023-01-04T19:44:49.655Z,96451.97
2023-01-04T19:47:50.192Z,96454.88
2023-01-04T19:50:46.964Z,96430.75
2023-01-04T19:53:44.407Z,96426.56
2023-01-04T19:56:41.285Z,96418.28
2023-01-04T19:59:38.071Z,96421.09
2023-01-04T20:02:34.985Z,96416.16
2023-01-04T20:05:33.964Z,96425.97
2023-01-04T20:08:30.839Z,96420.97
2023-01-04T20:11:27.644Z,96420.31
2023-01-04T20:14:24.425Z,96444.28
2023-01-04T20:17:21.196Z,96446.13
2023-01-04T20:20:18.954Z,96447.84
2023-01-04T20:23:16.301Z,96430.19
2023-01-04T20:26:15.915Z,96449.00
2023-01-04T20:29:12.742Z,96463.22
2023-01-04T20:32:09.622Z,96455.56
2023-01-04T20:35:07.684Z,96461.47
2023-01-04T20:38:04.427Z,96436.97
2023-01-04T20:41:01.558Z,96441.28
2023-01-04T20:43:58.795Z,96433.09
2023-01-04T20:46:55.689Z,96436.31
2023-01-04T20:49:52.469Z,96442.13
2023-01-04T20:52:49.194Z,96423.13
2023-01-04T20:55:46.107Z,96424.22
2023-01-04T20:58:44.358Z,96436.75
2023-01-04T21:01:41.172Z,96423.56
2023-01-04T21:04:38.268Z,96436.16
2023-01-04T21:07:35.149Z,96424.88
2023-01-04T21:10:32.373Z,96427.75
2023-01-04T21:13:29.121Z,96420.31
2023-01-04T21:16:25.885Z,96437.19
2023-01-04T21:19:23.188Z,96431.72
2023-01-04T21:22:22.573Z,96419.38
2023-01-04T21:25:19.316Z,96424.94
2023-01-04T21:28:17.671Z,96425.16
2023-01-04T21:31:23.952Z,96421.19
2023-01-04T21:34:22.992Z,96413.34
2023-01-04T21:37:19.934Z,96418.81
2023-01-04T21:40:16.686Z,96417.00
2023-01-04T21:43:17.886Z,96421.84
2023-01-04T21:46:15.438Z,96425.16
2023-01-04T21:49:12.561Z,96420.41
2023-01-04T21:52:10.644Z,96422.19
2023-01-04T21:55:07.845Z,96417.16
2023-01-04T21:58:04.596Z,96427.69
2023-01-04T22:01:01.582Z,96433.94
2023-01-04T22:03:58.410Z,96412.19
2023-01-04T22:06:55.143Z,96422.44
2023-01-04T22:09:57.206Z,96414.78
2023-01-04T22:12:54.430Z,96397.75
2023-01-04T22:15:51.394Z,96398.69
2023-01-04T22:18:48.720Z,96394.75
2023-01-04T22:21:45.488Z,96390.19
2023-01-04T22:24:42.244Z,96398.50
2023-01-04T22:27:39.040Z,96387.25
2023-01-04T22:30:39.613Z,96379.34
2023-01-04T22:33:37.329Z,96379.91
2023-01-04T22:36:34.106Z,96396.28
2023-01-04T22:39:30.854Z,96376.16
2023-01-04T22:42:27.647Z,96385.88
2023-01-04T22:45:24.444Z,96388.56
2023-01-04T22:48:21.189Z,96376.31
2023-01-04T22:51:18.964Z,96378.69
2023-01-04T22:54:15.727Z,96380.47
2023-01-04T22:57:12.473Z,96375.91
2023-01-04T23:00:10.136Z,96398.75
2023-01-04T23:03:06.938Z,96396.56
2023-01-04T23:06:11.532Z,96398.63
2023-01-04T23:09:08.270Z,96387.34
2023-01-04T23:12:05.290Z,96400.97
2023-01-04T23:15:03.733Z,96387.34
2023-01-04T23:18:00.456Z,96380.47
2023-01-04T23:20:57.205Z,96384.44
2023-01-04T23:23:53.955Z,96379.25
2023-01-04T23:26:50.727Z,96370.09
2023-01-04T23:29:47.499Z,96369.22
2023-01-04T23:32:44.225Z,96366.81
2023-01-04T23:35:41.029Z,96378.22
2023-01-04T23:38:38.907Z,96370.41
2023-01-04T23:41:44.876Z,96384.53
2023-01-04T23:44:41.990Z,96371.66
2023-01-04T23:47:38.716Z,96371.38
2023-01-04T23:50:35.472Z,96370.09
2023-01-04T23:53:32.313Z,96377.78
2023-01-04T23:56:30.238Z,96371.97
2023-01-04T23:59:27.014Z,96374.94
